Airfield :
LOGIN :

Register | Disclaimer

   EN    FR    IT 

 










Legend :    VFR   Marginal VFR   IFR   Intensive IFR   Very Intensive IFR
Visi :
Ceiling :
>= 8 km
>= 3000ft
5 to 8 km
1000 to 3000 ft
1500m to 5 km
500 to 1000 ft
800 to 1500m
200 to 500 ft
< 800m
< 200 ft
Symbols :   Thunderstorms  Fog  Heavy snow  Heavy precipitations  Wind > 20 kt
SIGMETs :     Misc.  Thunderstorms  Icing  Turbulence  Mountain Waves  Volcanic Ashes







- Airport Elevation : 83 ft
- IATA code : LHR
- Download approach charts


EGLL - London Heathrow

CURRENT METAR :
  • 231820Z AUTO 05005KT 9999 BKN040 11/04 Q1032 NOSIG

EXPIRED METARs :
  • 231750Z AUTO 05005KT 010V080 9999 BKN047 12/03 Q1032 NOSIG
  • 231720Z AUTO 04006KT 010V070 9999 BKN046 12/03 Q1032 NOSIG
  • 231650Z AUTO 05006KT 9999 BKN046 12/03 Q1032 NOSIG
  • 231620Z AUTO 06005KT 010V090 9999 BKN046 13/03 Q1032 NOSIG
  • 231550Z AUTO 04005KT 340V090 9999 BKN045 13/03 Q1032 NOSIG

TAF TAF EGLL
Valid from the 23 at 18:00 until the 25 at 00:00 UTC


231658Z 2318/2424 08008KT 9999 FEW045
BECMG 2403/2406 33010KT
PROB30
TEMPO 2403/2408 8000
BECMG 2418/2421 27008KT
No reported NOTAMs for that airfield.



MET'MAP, your aeronautical weather chart ! - Copyright ORBIFLY December 2007 - Disclaimer

ORBIFLY MET'MAP TEAM :

Programming & Development : Alexandra Zaïnal
Concept & Development : Baudouin d'Aumeries
Co-Development & Prog : Marc-Olivier Méhu
Technical & hardware support : Manuel Goepfert

Contact : metmap@orbifly.com




SOURCES & CREDITS :

   NOAA